createdAt,value
2023-04-07T00:02:49.905Z,48.03
2023-04-07T00:06:06.502Z,49.30
2023-04-07T00:09:24.032Z,51.10
2023-04-07T00:12:40.498Z,47.33
2023-04-07T00:15:56.858Z,46.30
2023-04-07T00:19:13.265Z,52.08
2023-04-07T00:22:29.541Z,49.08
2023-04-07T00:25:45.888Z,50.10
2023-04-07T00:29:02.158Z,46.18
2023-04-07T00:32:18.655Z,46.53
2023-04-07T00:35:35.049Z,53.43
2023-04-07T00:38:51.307Z,51.70
2023-04-07T00:42:08.532Z,53.75
2023-04-07T00:45:25.031Z,48.60
2023-04-07T00:48:41.914Z,51.23
2023-04-07T00:51:58.101Z,47.38
2023-04-07T00:55:16.589Z,51.25
2023-04-07T00:58:32.871Z,51.68
2023-04-07T01:01:54.635Z,52.28
2023-04-07T01:05:19.234Z,49.10
2023-04-07T01:08:44.492Z,51.13
2023-04-07T01:12:05.748Z,51.40
2023-04-07T01:15:27.063Z,47.68
2023-04-07T01:18:47.463Z,48.23
2023-04-07T01:22:06.712Z,51.73
2023-04-07T01:25:47.864Z,50.23
2023-04-07T01:29:33.575Z,50.40
2023-04-07T01:32:53.483Z,49.38
2023-04-07T01:36:11.486Z,45.80
2023-04-07T01:39:28.973Z,49.55
2023-04-07T01:42:47.154Z,46.58
2023-04-07T01:46:05.699Z,50.55
2023-04-07T01:49:23.261Z,49.13
2023-04-07T01:52:40.314Z,48.83
2023-04-07T01:55:56.521Z,45.78
2023-04-07T01:59:12.931Z,46.38
2023-04-07T02:02:30.785Z,48.23
2023-04-07T02:05:48.690Z,50.88
2023-04-07T02:09:10.266Z,48.88
2023-04-07T02:12:27.536Z,52.48
2023-04-07T02:15:48.049Z,52.55
2023-04-07T02:19:07.339Z,50.55
2023-04-07T02:22:25.904Z,53.88
2023-04-07T02:25:43.667Z,47.47
2023-04-07T02:28:59.926Z,50.75
2023-04-07T02:32:18.876Z,48.63
2023-04-07T02:35:35.565Z,49.58
2023-04-07T02:38:51.921Z,50.18
2023-04-07T02:42:08.427Z,50.45
2023-04-07T02:45:24.952Z,49.38
2023-04-07T02:48:41.280Z,51.58
2023-04-07T02:51:58.625Z,50.73
2023-04-07T02:55:19.413Z,53.40
2023-04-07T02:58:35.994Z,52.10
2023-04-07T03:01:52.866Z,55.80
2023-04-07T03:05:10.147Z,52.80
2023-04-07T03:08:26.643Z,51.75
2023-04-07T03:11:43.493Z,51.70
2023-04-07T03:14:59.895Z,54.35
2023-04-07T03:18:17.214Z,53.65
2023-04-07T03:21:34.003Z,54.05
2023-04-07T03:24:50.382Z,49.88
2023-04-07T03:28:07.509Z,52.03
2023-04-07T03:31:26.609Z,50.10
2023-04-07T03:34:44.420Z,50.48
2023-04-07T03:38:01.777Z,54.18
2023-04-07T03:41:18.591Z,58.25
2023-04-07T03:44:36.144Z,51.70
2023-04-07T03:47:55.306Z,52.63
2023-04-07T03:51:12.056Z,51.08
2023-04-07T03:54:29.054Z,50.28
2023-04-07T03:57:45.506Z,53.63
2023-04-07T04:01:01.993Z,53.53
2023-04-07T04:04:18.956Z,53.45
2023-04-07T04:07:37.081Z,53.63
2023-04-07T04:10:54.383Z,55.10
2023-04-07T04:14:12.332Z,56.58
2023-04-07T04:17:29.897Z,60.45
2023-04-07T04:21:47.552Z,56.58
2023-04-07T04:25:04.809Z,55.65
2023-04-07T04:28:21.470Z,58.58
2023-04-07T04:31:39.084Z,58.05
2023-04-07T04:34:56.293Z,57.58
2023-04-07T04:38:14.027Z,56.73
2023-04-07T04:41:32.376Z,57.68
2023-04-07T04:44:49.559Z,57.95
2023-04-07T04:48:06.394Z,59.08
2023-04-07T04:51:23.046Z,58.33
2023-04-07T04:54:41.531Z,55.68
2023-04-07T04:57:59.017Z,56.88
2023-04-07T05:01:17.065Z,56.90
2023-04-07T05:04:35.359Z,54.80
2023-04-07T05:07:53.894Z,55.68
2023-04-07T05:11:11.174Z,54.63
2023-04-07T05:14:27.756Z,54.35
2023-04-07T05:17:47.663Z,54.88
2023-04-07T05:24:20.115Z,56.58
2023-04-07T05:27:38.127Z,53.43
2023-04-07T05:30:56.274Z,55.35
2023-04-07T05:34:14.520Z,54.50
2023-04-07T05:40:48.336Z,54.90
2023-04-07T05:44:07.571Z,53.50
2023-04-07T05:47:25.787Z,53.65
2023-04-07T05:50:43.053Z,48.75
2023-04-07T05:54:02.027Z,52.40
2023-04-07T05:57:18.587Z,55.15
2023-04-07T06:00:36.298Z,49.70
2023-04-07T06:03:54.557Z,50.30
2023-04-07T06:07:13.234Z,50.25
2023-04-07T06:10:32.753Z,48.95
2023-04-07T06:13:49.685Z,51.58
2023-04-07T06:17:06.662Z,51.33
2023-04-07T06:20:24.178Z,48.63
2023-04-07T06:23:40.628Z,46.95
2023-04-07T06:26:57.855Z,51.58
2023-04-07T06:30:17.095Z,51.98
2023-04-07T06:33:33.731Z,45.93
2023-04-07T06:36:50.088Z,42.93
2023-04-07T06:40:07.305Z,44.63
2023-04-07T06:43:23.767Z,41.65
2023-04-07T06:46:43.046Z,42.60
2023-04-07T06:49:59.517Z,43.98
2023-04-07T06:53:16.494Z,44.65
2023-04-07T06:56:33.239Z,42.30
2023-04-07T06:59:49.972Z,45.43
2023-04-07T07:03:06.879Z,42.38
2023-04-07T07:07:25.834Z,45.58
2023-04-07T07:10:42.239Z,45.67
2023-04-07T07:13:58.894Z,44.35
2023-04-07T07:17:15.011Z,43.23
2023-04-07T07:20:31.860Z,42.75
2023-04-07T07:23:48.389Z,46.35
2023-04-07T07:27:05.514Z,45.80
2023-04-07T07:30:23.058Z,45.30
2023-04-07T07:33:42.511Z,43.63
2023-04-07T07:40:13.818Z,45.85
2023-04-07T07:43:31.957Z,44.95
2023-04-07T07:46:48.643Z,77.53
2023-04-07T07:50:05.465Z,122.45
2023-04-07T07:53:22.015Z,56.40
2023-04-07T07:56:38.481Z,45.38
2023-04-07T07:59:55.086Z,45.53
2023-04-07T08:03:11.375Z,44.83
2023-04-07T08:06:28.300Z,47.10
2023-04-07T08:09:44.643Z,44.33
2023-04-07T08:13:01.755Z,41.38
2023-04-07T08:16:18.381Z,42.50
2023-04-07T08:19:35.009Z,40.75
2023-04-07T08:22:51.379Z,39.20
2023-04-07T08:26:10.175Z,39.85
2023-04-07T08:29:26.416Z,39.10
2023-04-07T08:32:48.915Z,39.20
2023-04-07T08:36:06.672Z,36.83
2023-04-07T08:42:41.478Z,37.40
2023-04-07T08:45:58.658Z,37.17
2023-04-07T08:49:19.283Z,36.30
2023-04-07T08:52:43.204Z,34.35
2023-04-07T08:56:00.341Z,33.45
2023-04-07T08:59:22.090Z,32.13
2023-04-07T09:02:41.062Z,71.73
2023-04-07T09:06:00.031Z,112.08
2023-04-07T09:09:16.748Z,48.70
2023-04-07T09:12:34.968Z,36.18
2023-04-07T09:15:51.640Z,32.98
2023-04-07T09:19:08.360Z,31.65
2023-04-07T09:25:40.561Z,34.43
2023-04-07T09:29:00.717Z,30.73
2023-04-07T09:32:18.253Z,33.20
2023-04-07T09:35:36.765Z,34.28
2023-04-07T09:42:13.856Z,34.63
2023-04-07T09:45:37.925Z,33.45
2023-04-07T09:49:00.121Z,157.90
2023-04-07T09:52:16.506Z,61.98
2023-04-07T09:55:34.887Z,39.30
2023-04-07T09:58:52.736Z,34.15
2023-04-07T10:02:10.253Z,32.05
2023-04-07T10:05:27.417Z,31.73
2023-04-07T10:12:02.365Z,29.63
2023-04-07T10:18:40.340Z,30.08
2023-04-07T10:26:28.876Z,27.05
2023-04-07T10:29:50.980Z,30.00
2023-04-07T10:33:07.832Z,28.58
2023-04-07T10:36:25.360Z,29.45
2023-04-07T10:39:42.022Z,27.25
2023-04-07T10:42:58.344Z,26.33
2023-04-07T10:46:14.957Z,26.65
2023-04-07T10:49:31.448Z,28.50
2023-04-07T10:56:06.713Z,24.08
2023-04-07T10:59:28.028Z,25.35
2023-04-07T11:02:46.430Z,23.00
2023-04-07T11:06:10.218Z,25.00
2023-04-07T11:09:30.654Z,23.60
2023-04-07T11:12:47.295Z,21.63
2023-04-07T11:16:03.862Z,23.35
2023-04-07T11:19:20.415Z,23.08
2023-04-07T11:22:38.320Z,26.08
2023-04-07T11:25:56.632Z,23.90
2023-04-07T11:29:13.633Z,26.50
2023-04-07T11:32:32.235Z,24.73
2023-04-07T11:35:57.851Z,22.77
2023-04-07T11:39:27.706Z,24.88
2023-04-07T11:42:47.293Z,23.50
2023-04-07T11:49:34.336Z,24.75
2023-04-07T11:52:54.916Z,25.78
2023-04-07T11:56:19.658Z,24.75
2023-04-07T11:59:36.187Z,24.15
2023-04-07T12:02:53.518Z,23.50
2023-04-07T12:06:10.749Z,22.68
2023-04-07T12:09:40.030Z,21.18
2023-04-07T12:16:13.961Z,25.23
2023-04-07T12:19:31.571Z,27.13
2023-04-07T12:22:48.676Z,26.25
2023-04-07T12:26:05.106Z,26.88
2023-04-07T12:29:22.291Z,26.75
2023-04-07T12:32:38.753Z,31.83
2023-04-07T12:35:55.999Z,27.58
2023-04-07T12:42:28.581Z,28.80
2023-04-07T12:45:45.120Z,28.65
2023-04-07T12:49:02.624Z,29.75
2023-04-07T12:56:41.253Z,28.23
2023-04-07T12:59:59.970Z,30.85
2023-04-07T13:03:16.997Z,30.18
2023-04-07T13:06:33.698Z,27.73
2023-04-07T13:09:50.891Z,29.25
2023-04-07T13:13:07.390Z,29.78
2023-04-07T13:16:24.093Z,31.68
2023-04-07T13:19:41.123Z,31.50
2023-04-07T13:26:13.768Z,31.35
2023-04-07T13:29:30.256Z,31.10
2023-04-07T13:32:48.614Z,31.25
2023-04-07T13:36:05.002Z,34.78
2023-04-07T13:42:37.591Z,28.63
2023-04-07T13:45:54.287Z,30.30
2023-04-07T13:49:11.089Z,34.40
2023-04-07T13:57:34.763Z,32.88
2023-04-07T14:00:54.276Z,32.30
2023-04-07T14:12:18.078Z,29.25
2023-04-07T14:15:34.949Z,27.88
2023-04-07T14:18:52.530Z,37.53
2023-04-07T14:22:09.307Z,34.25
2023-04-07T14:25:27.178Z,29.63
2023-04-07T14:28:43.796Z,30.95
2023-04-07T14:32:00.583Z,30.75
2023-04-07T14:35:18.473Z,28.25
2023-04-07T14:41:50.631Z,31.68
2023-04-07T14:45:07.532Z,27.60
2023-04-07T14:48:24.313Z,27.80
2023-04-07T14:51:41.493Z,27.93
2023-04-07T14:55:00.059Z,30.25
2023-04-07T14:58:16.336Z,31.80
2023-04-07T15:01:32.923Z,30.58
2023-04-07T15:04:49.324Z,32.03
2023-04-07T15:08:06.086Z,30.35
2023-04-07T15:11:22.752Z,44.20
2023-04-07T15:14:39.979Z,33.93
2023-04-07T15:17:56.289Z,30.88
2023-04-07T15:21:14.321Z,29.25
2023-04-07T15:27:46.651Z,28.83
2023-04-07T15:31:03.977Z,26.90
2023-04-07T15:34:20.260Z,26.90
2023-04-07T15:37:36.677Z,29.25
2023-04-07T15:40:54.759Z,26.83
2023-04-07T15:44:12.054Z,28.50
2023-04-07T15:47:28.350Z,27.40
2023-04-07T15:50:45.048Z,26.28
2023-04-07T15:54:02.248Z,24.18
2023-04-07T15:57:18.612Z,23.15
2023-04-07T16:00:37.003Z,24.70
2023-04-07T16:03:54.137Z,51.45
2023-04-07T16:07:12.858Z,29.15
2023-04-07T16:10:31.297Z,25.10
2023-04-07T16:13:50.369Z,25.60
2023-04-07T16:17:17.043Z,24.63
2023-04-07T16:20:38.292Z,23.53
2023-04-07T16:23:54.472Z,21.15
2023-04-07T16:27:12.355Z,24.90
2023-04-07T16:30:29.919Z,24.18
2023-04-07T16:33:47.703Z,25.45
2023-04-07T16:37:04.287Z,27.45
2023-04-07T16:40:21.714Z,25.93
2023-04-07T16:43:38.362Z,27.23
2023-04-07T16:46:55.318Z,25.30
2023-04-07T16:50:16.822Z,26.10
2023-04-07T16:53:33.158Z,27.28
2023-04-07T16:56:49.893Z,26.88
2023-04-07T17:00:06.770Z,26.40
2023-04-07T17:03:24.867Z,23.28
2023-04-07T17:06:42.346Z,24.78
2023-04-07T17:09:58.785Z,24.45
2023-04-07T17:13:15.437Z,22.78
2023-04-07T17:16:31.750Z,23.83
2023-04-07T17:19:48.596Z,25.10
2023-04-07T17:28:36.218Z,23.23
2023-04-07T17:31:53.110Z,25.93
2023-04-07T17:35:09.370Z,26.60
2023-04-07T17:38:25.829Z,24.98
2023-04-07T17:41:43.091Z,31.38
2023-04-07T17:45:02.784Z,30.10
2023-04-07T17:48:21.542Z,31.05
2023-04-07T17:51:38.406Z,31.25
2023-04-07T17:54:54.955Z,34.98
2023-04-07T17:58:11.486Z,31.10
2023-04-07T18:01:28.954Z,31.35
2023-04-07T18:04:46.455Z,30.00
2023-04-07T18:08:03.370Z,34.10
2023-04-07T18:14:36.445Z,33.13
2023-04-07T18:17:53.958Z,32.10
2023-04-07T18:21:36.350Z,31.60
2023-04-07T18:24:52.762Z,33.15
2023-04-07T18:28:09.145Z,33.55
2023-04-07T18:31:26.386Z,30.70
2023-04-07T18:34:42.895Z,29.00
2023-04-07T18:38:00.021Z,28.90
2023-04-07T18:41:19.745Z,29.85
2023-04-07T18:44:36.539Z,33.60
2023-04-07T18:47:53.969Z,32.15
2023-04-07T18:51:10.856Z,34.48
2023-04-07T18:54:28.771Z,34.83
2023-04-07T18:57:46.497Z,33.95
2023-04-07T19:01:03.469Z,36.50
2023-04-07T19:04:21.986Z,34.18
2023-04-07T19:07:38.521Z,36.28
2023-04-07T19:10:55.277Z,40.78
2023-04-07T19:14:12.975Z,40.23
2023-04-07T19:17:29.929Z,43.08
2023-04-07T19:20:46.892Z,47.48
2023-04-07T19:27:21.624Z,46.50
2023-04-07T19:30:38.341Z,45.50
2023-04-07T19:33:54.923Z,47.35
2023-04-07T19:37:11.843Z,56.33
2023-04-07T19:43:44.414Z,61.30
2023-04-07T19:47:01.411Z,59.98
2023-04-07T19:50:20.874Z,55.25
2023-04-07T19:53:37.435Z,53.70
2023-04-07T19:56:54.416Z,49.48
2023-04-07T20:00:11.804Z,54.23
2023-04-07T20:03:30.057Z,52.93
2023-04-07T20:06:46.852Z,54.15
2023-04-07T20:10:05.706Z,54.18
2023-04-07T20:13:22.116Z,61.43
2023-04-07T20:16:40.777Z,57.03
2023-04-07T20:19:58.758Z,52.73
2023-04-07T20:23:16.726Z,56.25
2023-04-07T20:26:33.592Z,56.00
2023-04-07T20:29:50.436Z,55.05
2023-04-07T20:33:08.304Z,60.60
2023-04-07T20:36:24.986Z,58.33
2023-04-07T20:39:41.578Z,54.98
2023-04-07T20:42:57.902Z,49.60
2023-04-07T20:46:14.866Z,52.05
2023-04-07T20:49:31.389Z,55.08
2023-04-07T20:52:48.207Z,56.93
2023-04-07T20:56:05.813Z,58.20
2023-04-07T20:59:22.141Z,58.55
2023-04-07T21:02:38.667Z,54.78
2023-04-07T21:05:55.483Z,58.18
2023-04-07T21:09:12.049Z,54.03
2023-04-07T21:12:28.655Z,50.40
2023-04-07T21:15:46.481Z,46.35
2023-04-07T21:19:04.396Z,45.93
2023-04-07T21:22:20.737Z,46.53
2023-04-07T21:25:37.285Z,49.05
2023-04-07T21:28:53.586Z,46.43
2023-04-07T21:32:10.111Z,48.85
2023-04-07T21:35:27.222Z,47.70
2023-04-07T21:38:43.912Z,49.60
2023-04-07T21:42:00.392Z,49.08
2023-04-07T21:45:20.423Z,45.68
2023-04-07T21:48:36.833Z,43.50
2023-04-07T21:51:53.282Z,42.75
2023-04-07T21:55:10.970Z,43.85
2023-04-07T21:58:28.285Z,40.65
2023-04-07T22:01:46.493Z,47.00
2023-04-07T22:05:03.142Z,42.05
2023-04-07T22:08:21.460Z,44.78
2023-04-07T22:11:37.763Z,43.73
2023-04-07T22:14:56.919Z,46.15
2023-04-07T22:18:13.681Z,45.00
2023-04-07T22:21:30.818Z,45.98
2023-04-07T22:24:48.805Z,49.27
2023-04-07T22:28:05.219Z,43.73
2023-04-07T22:31:22.012Z,44.98
2023-04-07T22:34:38.612Z,46.00
2023-04-07T22:37:55.787Z,46.98
2023-04-07T22:41:13.029Z,43.65
2023-04-07T22:44:29.566Z,45.90
2023-04-07T22:47:47.132Z,47.38
2023-04-07T22:51:03.911Z,47.45
2023-04-07T22:57:36.332Z,51.65
2023-04-07T23:00:52.470Z,49.85
2023-04-07T23:04:09.014Z,48.80
2023-04-07T23:07:28.071Z,50.00
2023-04-07T23:10:44.392Z,46.75
2023-04-07T23:14:00.708Z,51.75
2023-04-07T23:17:16.931Z,50.25
2023-04-07T23:20:33.319Z,47.90
2023-04-07T23:24:51.620Z,44.33
2023-04-07T23:28:07.984Z,46.40
2023-04-07T23:31:25.132Z,44.98
2023-04-07T23:34:41.504Z,45.50
2023-04-07T23:37:58.417Z,47.90
2023-04-07T23:41:14.915Z,51.43
2023-04-07T23:44:31.361Z,49.83
2023-04-07T23:47:47.929Z,52.95
2023-04-07T23:51:05.252Z,47.38
2023-04-07T23:54:21.614Z,49.23
2023-04-07T23:57:37.964Z,50.08
